createdAt,value
2022-11-13T00:01:30.225Z,-2.12
2022-11-13T00:03:53.048Z,4.52
2022-11-13T00:06:16.050Z,-1.73
2022-11-13T00:08:37.421Z,1.90
2022-11-13T00:11:03.412Z,-1.67
2022-11-13T00:13:30.029Z,-0.85
2022-11-13T00:15:58.029Z,-2.65
2022-11-13T00:18:19.404Z,4.36
2022-11-13T00:20:41.986Z,4.41
2022-11-13T00:23:03.302Z,4.36
2022-11-13T00:25:24.649Z,3.90
2022-11-13T00:27:46.070Z,-4.16
2022-11-13T00:30:08.670Z,-2.23
2022-11-13T00:32:30.123Z,2.71
2022-11-13T00:34:51.363Z,4.01
2022-11-13T00:37:14.173Z,4.00
2022-11-13T00:39:35.526Z,-4.10
2022-11-13T00:41:56.733Z,-0.42
2022-11-13T00:44:18.111Z,1.15
2022-11-13T00:46:39.391Z,-3.66
2022-11-13T00:49:00.878Z,-5.28
2022-11-13T00:51:22.063Z,3.58
2022-11-13T00:53:44.865Z,3.69
2022-11-13T00:56:06.995Z,3.93
2022-11-13T00:58:29.271Z,4.12
2022-11-13T01:00:50.850Z,4.09
2022-11-13T01:03:12.797Z,-0.76
2022-11-13T01:05:37.180Z,2.40
2022-11-13T01:07:58.516Z,1.89
2022-11-13T01:10:22.167Z,-1.86
2022-11-13T01:12:43.606Z,1.75
2022-11-13T01:15:05.341Z,4.07
2022-11-13T01:17:26.619Z,1.88
2022-11-13T01:19:47.919Z,-1.86
2022-11-13T01:22:09.212Z,0.63
2022-11-13T01:24:30.582Z,4.06
2022-11-13T01:26:53.706Z,1.77
2022-11-13T01:29:15.302Z,1.49
2022-11-13T01:31:36.945Z,4.10
2022-11-13T01:33:58.898Z,2.73
2022-11-13T01:36:22.526Z,2.35
2022-11-13T01:38:43.728Z,3.49
2022-11-13T01:41:05.657Z,0.84
2022-11-13T01:43:30.389Z,4.04
2022-11-13T01:46:14.799Z,-2.05
2022-11-13T01:48:39.757Z,2.89
2022-11-13T01:51:01.345Z,-1.25
2022-11-13T01:53:23.497Z,1.60
2022-11-13T01:55:45.209Z,0.16
2022-11-13T01:58:09.650Z,-1.66
2022-11-13T02:00:32.163Z,-3.28
2022-11-13T02:02:53.626Z,-1.60
2022-11-13T02:05:15.220Z,1.95
2022-11-13T02:07:36.542Z,2.32
2022-11-13T02:09:59.515Z,3.08
2022-11-13T02:12:26.420Z,-2.18
2022-11-13T02:14:52.999Z,3.39
2022-11-13T02:17:19.582Z,3.38
2022-11-13T02:19:45.156Z,-1.69
2022-11-13T02:22:15.201Z,-7.73
2022-11-13T02:24:45.087Z,1.19
2022-11-13T02:27:10.242Z,-1.20
2022-11-13T02:29:31.757Z,-3.17
2022-11-13T02:31:52.932Z,1.33
2022-11-13T02:34:14.571Z,-2.59
2022-11-13T02:36:37.398Z,1.16
2022-11-13T02:39:02.578Z,3.35
2022-11-13T02:41:25.185Z,3.15
2022-11-13T02:43:46.370Z,3.18
2022-11-13T02:46:07.833Z,-0.95
2022-11-13T02:48:29.721Z,-5.54
2022-11-13T02:50:51.447Z,3.43
2022-11-13T02:53:12.611Z,1.64
2022-11-13T02:55:34.159Z,1.35
2022-11-13T02:57:57.090Z,3.05
2022-11-13T03:00:19.952Z,-2.89
2022-11-13T03:02:41.393Z,-0.13
2022-11-13T03:05:12.079Z,-2.89
2022-11-13T03:07:34.546Z,-3.98
2022-11-13T03:09:55.640Z,2.92
2022-11-13T03:12:16.902Z,0.70
2022-11-13T03:14:39.651Z,0.72
2022-11-13T03:17:01.042Z,3.02
2022-11-13T03:19:22.258Z,-4.34
2022-11-13T03:21:43.694Z,1.01
2022-11-13T03:24:04.877Z,1.70
2022-11-13T03:26:28.195Z,-1.44
2022-11-13T03:28:49.408Z,-0.41
2022-11-13T03:31:12.054Z,2.68
2022-11-13T03:33:33.365Z,2.75
2022-11-13T03:35:54.651Z,-7.83
2022-11-13T03:38:16.170Z,2.68
2022-11-13T03:40:37.566Z,-2.76
2022-11-13T03:42:58.721Z,-3.09
2022-11-13T03:45:19.931Z,2.82
2022-11-13T03:47:42.451Z,-2.63
2022-11-13T03:50:03.707Z,2.75
2022-11-13T03:52:24.978Z,-2.57
2022-11-13T03:54:46.520Z,-2.81
2022-11-13T03:57:08.188Z,2.78
2022-11-13T03:59:29.553Z,2.79
2022-11-13T04:01:50.977Z,2.79
2022-11-13T04:04:13.712Z,0.53
2022-11-13T04:06:34.929Z,1.18
2022-11-13T04:08:56.123Z,1.34
2022-11-13T04:11:17.513Z,-1.39
2022-11-13T04:13:39.063Z,-2.73
2022-11-13T04:16:00.385Z,2.77
2022-11-13T04:18:21.603Z,0.53
2022-11-13T04:20:44.268Z,-2.81
2022-11-13T04:23:07.878Z,-0.26
2022-11-13T04:25:29.147Z,2.59
2022-11-13T04:27:50.535Z,-5.69
2022-11-13T04:30:12.935Z,2.58
2022-11-13T04:32:34.332Z,2.60
2022-11-13T04:34:55.492Z,0.38
2022-11-13T04:37:17.983Z,2.61
2022-11-13T04:39:39.226Z,2.71
2022-11-13T04:42:17.918Z,2.64
2022-11-13T04:44:39.307Z,2.37
2022-11-13T04:47:00.569Z,2.21
2022-11-13T04:49:21.810Z,2.43
2022-11-13T04:51:43.065Z,-2.55
2022-11-13T04:54:05.647Z,-5.20
2022-11-13T04:56:27.184Z,2.61
2022-11-13T04:58:48.442Z,-2.50
2022-11-13T05:01:09.700Z,-2.36
2022-11-13T05:03:30.995Z,-2.59
2022-11-13T05:05:52.104Z,2.71
2022-11-13T05:08:13.680Z,2.79
2022-11-13T05:10:36.180Z,-6.26
2022-11-13T05:12:57.594Z,-7.89
2022-11-13T05:15:18.982Z,-8.58
2022-11-13T05:17:40.269Z,2.76
2022-11-13T05:20:01.512Z,-4.25
2022-11-13T05:22:22.769Z,-3.47
2022-11-13T05:24:43.828Z,0.68
2022-11-13T05:27:06.554Z,-7.41
2022-11-13T05:29:28.114Z,2.66
2022-11-13T05:31:49.398Z,-0.56
2022-11-13T05:34:10.528Z,2.57
2022-11-13T05:36:31.807Z,-4.04
2022-11-13T05:38:53.417Z,-2.94
2022-11-13T05:41:15.710Z,2.41
2022-11-13T05:43:39.877Z,-2.60
2022-11-13T05:46:03.108Z,0.06
2022-11-13T05:48:24.218Z,-3.63
2022-11-13T05:50:45.454Z,2.48
2022-11-13T05:53:06.689Z,2.48
2022-11-13T05:55:28.151Z,-1.65
2022-11-13T05:57:49.496Z,2.43
2022-11-13T06:00:13.471Z,2.45
2022-11-13T06:02:36.065Z,-2.92
2022-11-13T06:04:57.664Z,2.43
2022-11-13T06:07:18.932Z,2.25
2022-11-13T06:09:40.048Z,1.06
2022-11-13T06:12:01.205Z,0.14
2022-11-13T06:14:22.462Z,-3.54
2022-11-13T06:16:45.228Z,-3.40
2022-11-13T06:19:09.083Z,-2.36
2022-11-13T06:21:33.152Z,2.30
2022-11-13T06:23:54.488Z,2.31
2022-11-13T06:26:17.964Z,-3.44
2022-11-13T06:28:39.926Z,-3.88
2022-11-13T06:31:04.820Z,-2.36
2022-11-13T06:33:29.421Z,-3.15
2022-11-13T06:35:50.876Z,2.33
2022-11-13T06:38:12.154Z,2.32
2022-11-13T06:40:33.321Z,2.18
2022-11-13T06:42:54.533Z,-3.35
2022-11-13T06:45:15.644Z,2.10
2022-11-13T06:47:36.898Z,-4.66
2022-11-13T06:49:59.792Z,-3.49
2022-11-13T06:52:21.007Z,2.24
2022-11-13T06:54:42.345Z,-0.75
2022-11-13T06:57:03.663Z,-2.71
2022-11-13T06:59:24.884Z,-2.91
2022-11-13T07:01:45.973Z,2.24
2022-11-13T07:04:09.191Z,-3.31
2022-11-13T07:06:33.919Z,-1.38
2022-11-13T07:08:58.952Z,-3.28
2022-11-13T07:11:22.257Z,2.31
2022-11-13T07:13:43.927Z,2.35
2022-11-13T07:16:16.390Z,-2.84
2022-11-13T07:18:38.500Z,2.45
2022-11-13T07:21:04.208Z,2.49
2022-11-13T07:23:26.783Z,-2.64
2022-11-13T07:25:47.870Z,-2.92
2022-11-13T07:28:09.076Z,2.69
2022-11-13T07:30:30.388Z,2.78
2022-11-13T07:32:52.017Z,2.83
2022-11-13T07:35:13.380Z,-6.71
2022-11-13T07:37:34.491Z,-2.85
2022-11-13T07:39:57.160Z,-2.52
2022-11-13T07:42:18.399Z,2.88
2022-11-13T07:44:54.041Z,2.91
2022-11-13T07:47:16.712Z,-0.73
2022-11-13T07:49:38.155Z,3.15
2022-11-13T07:51:59.714Z,-1.73
2022-11-13T07:54:20.940Z,-4.00
2022-11-13T07:56:43.675Z,-1.48
2022-11-13T07:59:05.266Z,-6.16
2022-11-13T08:01:26.975Z,2.33
2022-11-13T08:03:48.240Z,3.65
2022-11-13T08:06:10.529Z,3.48
2022-11-13T08:08:32.214Z,3.72
2022-11-13T08:10:53.450Z,-1.89
2022-11-13T08:13:15.857Z,-1.87
2022-11-13T08:15:36.964Z,1.75
2022-11-13T08:17:59.182Z,-2.70
2022-11-13T08:20:20.531Z,0.47
2022-11-13T08:22:41.667Z,3.32
2022-11-13T08:25:02.770Z,0.82
2022-11-13T08:27:24.712Z,-0.82
2022-11-13T08:29:47.816Z,2.25
2022-11-13T08:32:09.166Z,3.96
2022-11-13T08:34:30.775Z,-0.46
2022-11-13T08:36:52.358Z,-2.01
2022-11-13T08:39:14.256Z,5.02
2022-11-13T08:41:35.497Z,5.13
2022-11-13T08:43:56.625Z,0.61
2022-11-13T08:46:19.238Z,5.49
2022-11-13T08:48:40.562Z,-0.62
2022-11-13T08:51:02.072Z,5.79
2022-11-13T08:53:24.536Z,3.59
2022-11-13T08:55:45.633Z,5.48
2022-11-13T08:58:06.766Z,-2.84
2022-11-13T09:00:28.757Z,-0.09
2022-11-13T09:02:55.427Z,3.96
2022-11-13T09:05:16.912Z,3.96
2022-11-13T09:07:38.306Z,6.68
2022-11-13T09:09:59.579Z,7.28
2022-11-13T09:12:21.483Z,7.46
2022-11-13T09:14:42.905Z,7.56
2022-11-13T09:17:04.285Z,7.65
2022-11-13T09:19:27.239Z,7.77
2022-11-13T09:21:48.979Z,7.92
2022-11-13T09:24:10.315Z,7.28
2022-11-13T09:26:31.724Z,8.19
2022-11-13T09:28:53.267Z,8.32
2022-11-13T09:31:14.707Z,7.87
2022-11-13T09:33:36.063Z,8.24
2022-11-13T09:35:59.067Z,8.30
2022-11-13T09:38:20.368Z,7.63
2022-11-13T09:40:47.476Z,8.62
2022-11-13T09:43:21.825Z,5.74
2022-11-13T09:45:43.023Z,6.85
2022-11-13T09:48:19.256Z,8.69
2022-11-13T09:50:41.728Z,8.87
2022-11-13T09:53:05.693Z,9.22
2022-11-13T09:55:39.799Z,9.31
2022-11-13T09:58:10.397Z,8.96
2022-11-13T10:00:34.669Z,6.87
2022-11-13T10:03:07.637Z,2.53
2022-11-13T10:05:36.513Z,2.51
2022-11-13T10:08:08.179Z,9.98
2022-11-13T10:10:49.302Z,10.17
2022-11-13T10:13:18.111Z,10.24
2022-11-13T10:15:40.150Z,6.61
2022-11-13T10:18:06.705Z,9.59
2022-11-13T10:20:35.209Z,10.03
2022-11-13T10:23:00.944Z,10.82
2022-11-13T10:25:23.819Z,10.69
2022-11-13T10:27:51.979Z,10.25
2022-11-13T10:30:17.885Z,6.91
2022-11-13T10:32:39.365Z,7.70
2022-11-13T10:35:10.285Z,10.44
2022-11-13T10:37:49.880Z,10.87
2022-11-13T10:40:11.480Z,11.15
2022-11-13T10:42:39.788Z,11.17
2022-11-13T10:45:03.664Z,11.09
2022-11-13T10:48:01.975Z,9.89
2022-11-13T10:50:13.871Z,8.22
2022-11-13T10:52:35.179Z,9.82
2022-11-13T10:55:15.566Z,10.43
2022-11-13T10:57:37.163Z,11.04
2022-11-13T10:59:58.373Z,10.41
2022-11-13T11:02:23.147Z,9.39
2022-11-13T11:04:44.675Z,10.90
2022-11-13T11:07:22.553Z,10.64
2022-11-13T11:09:46.619Z,11.52
2022-11-13T11:12:19.347Z,11.64
2022-11-13T11:14:46.141Z,12.17
2022-11-13T11:17:08.271Z,11.52
2022-11-13T11:19:35.582Z,10.61
2022-11-13T11:22:05.705Z,10.14
2022-11-13T11:24:33.313Z,10.56
2022-11-13T11:27:00.740Z,10.81
2022-11-13T11:29:29.336Z,11.90
2022-11-13T11:31:54.135Z,11.80
2022-11-13T11:34:19.797Z,11.77
2022-11-13T11:36:49.012Z,11.75
2022-11-13T11:39:24.647Z,11.63
2022-11-13T11:41:58.333Z,11.88
2022-11-13T11:44:32.491Z,12.53
2022-11-13T11:46:53.703Z,12.70
2022-11-13T11:49:15.444Z,12.52
2022-11-13T11:51:46.022Z,12.89
2022-11-13T11:54:22.020Z,13.71
2022-11-13T11:56:47.561Z,14.21
2022-11-13T11:59:27.093Z,13.68
2022-11-13T12:02:04.932Z,11.31
2022-11-13T12:04:38.637Z,14.43
2022-11-13T12:07:14.850Z,14.22
2022-11-13T12:09:44.745Z,13.95
2022-11-13T12:12:14.380Z,14.78
2022-11-13T12:14:47.488Z,15.22
2022-11-13T12:17:27.821Z,12.00
2022-11-13T12:19:56.574Z,15.12
2022-11-13T12:22:30.577Z,14.56
2022-11-13T12:25:09.466Z,14.53
2022-11-13T12:27:36.488Z,14.46
2022-11-13T12:30:11.786Z,13.06
2022-11-13T12:32:46.763Z,15.22
2022-11-13T12:35:14.500Z,14.82
2022-11-13T12:37:47.355Z,14.60
2022-11-13T12:40:21.002Z,15.27
2022-11-13T12:42:48.920Z,14.67
2022-11-13T12:45:18.005Z,14.67
2022-11-13T12:47:39.478Z,16.07
2022-11-13T12:50:03.143Z,15.33
2022-11-13T12:52:24.721Z,15.77
2022-11-13T12:54:46.086Z,14.72
2022-11-13T12:57:28.860Z,15.64
2022-11-13T12:59:53.843Z,15.32
2022-11-13T13:02:50.432Z,16.23
2022-11-13T13:05:21.367Z,10.24
2022-11-13T13:08:03.730Z,17.20
2022-11-13T13:10:33.010Z,17.00
2022-11-13T13:13:05.812Z,16.16
2022-11-13T13:15:34.145Z,16.65
2022-11-13T13:18:04.584Z,17.00
2022-11-13T13:20:38.399Z,15.43
2022-11-13T13:23:06.006Z,16.24
2022-11-13T13:25:32.232Z,16.21
2022-11-13T13:27:59.622Z,14.32
2022-11-13T13:30:23.003Z,15.86
2022-11-13T13:33:04.924Z,16.37
2022-11-13T13:35:32.561Z,10.82
2022-11-13T13:37:59.472Z,16.37
2022-11-13T13:40:31.053Z,15.88
2022-11-13T13:43:10.642Z,16.18
2022-11-13T13:45:42.816Z,15.75
2022-11-13T13:48:11.413Z,17.66
2022-11-13T13:50:36.926Z,16.91
2022-11-13T13:53:00.247Z,17.03
2022-11-13T13:55:28.845Z,18.00
2022-11-13T13:57:50.535Z,18.12
2022-11-13T14:00:16.702Z,17.84
2022-11-13T14:02:46.713Z,15.22
2022-11-13T14:05:25.429Z,18.17
2022-11-13T14:07:47.162Z,17.42
2022-11-13T14:10:15.468Z,17.46
2022-11-13T14:12:36.622Z,17.37
2022-11-13T14:14:57.663Z,18.30
2022-11-13T14:17:25.511Z,18.60
2022-11-13T14:19:51.321Z,18.25
2022-11-13T14:22:13.623Z,18.40
2022-11-13T14:24:40.695Z,17.76
2022-11-13T14:27:06.467Z,17.24
2022-11-13T14:29:35.970Z,16.76
2022-11-13T14:32:04.488Z,14.22
2022-11-13T14:34:27.160Z,14.67
2022-11-13T14:36:49.356Z,15.03
2022-11-13T14:39:21.521Z,16.30
2022-11-13T14:41:50.367Z,16.85
2022-11-13T14:44:13.113Z,17.07
2022-11-13T14:46:37.577Z,16.51
2022-11-13T14:48:59.007Z,16.45
2022-11-13T14:51:26.902Z,16.00
2022-11-13T14:53:58.676Z,15.29
2022-11-13T14:56:20.153Z,14.89
2022-11-13T14:58:44.552Z,14.55
2022-11-13T15:01:24.598Z,14.16
2022-11-13T15:03:47.609Z,13.94
2022-11-13T15:06:13.450Z,13.72
2022-11-13T15:08:38.861Z,13.50
2022-11-13T15:11:00.008Z,13.35
2022-11-13T15:13:21.905Z,10.82
2022-11-13T15:15:43.265Z,13.08
2022-11-13T15:18:05.613Z,12.97
2022-11-13T15:20:29.481Z,12.82
2022-11-13T15:22:51.996Z,8.13
2022-11-13T15:25:19.445Z,12.44
2022-11-13T15:27:43.292Z,12.22
2022-11-13T15:30:05.759Z,11.23
2022-11-13T15:32:28.923Z,11.86
2022-11-13T15:34:50.296Z,11.85
2022-11-13T15:37:13.685Z,10.32
2022-11-13T15:39:35.243Z,11.59
2022-11-13T15:41:58.293Z,11.26
2022-11-13T15:44:19.587Z,5.30
2022-11-13T15:46:41.197Z,11.19
2022-11-13T15:49:02.879Z,10.81
2022-11-13T15:51:28.204Z,11.10
2022-11-13T15:53:51.430Z,5.48
2022-11-13T15:56:12.563Z,10.89
2022-11-13T15:58:34.966Z,10.80
2022-11-13T16:00:56.135Z,10.69
2022-11-13T16:03:19.101Z,6.09
2022-11-13T16:05:40.615Z,10.45
2022-11-13T16:08:01.904Z,9.98
2022-11-13T16:10:25.255Z,9.98
2022-11-13T16:12:46.953Z,10.00
2022-11-13T16:15:13.823Z,9.88
2022-11-13T16:17:41.154Z,9.80
2022-11-13T16:20:02.943Z,9.72
2022-11-13T16:22:26.751Z,9.61
2022-11-13T16:24:48.253Z,9.48
2022-11-13T16:27:13.170Z,9.31
2022-11-13T16:29:34.284Z,8.61
2022-11-13T16:31:57.063Z,7.99
2022-11-13T16:34:18.620Z,3.99
2022-11-13T16:36:39.958Z,9.00
2022-11-13T16:39:01.431Z,8.96
2022-11-13T16:41:23.684Z,8.90
2022-11-13T16:43:45.154Z,8.06
2022-11-13T16:46:19.202Z,8.46
2022-11-13T16:48:42.447Z,8.68
2022-11-13T16:51:03.746Z,8.61
2022-11-13T16:53:25.095Z,8.56
2022-11-13T16:55:46.811Z,8.45
2022-11-13T16:58:07.933Z,8.33
2022-11-13T17:00:29.192Z,8.23
2022-11-13T17:02:51.334Z,8.18
2022-11-13T17:05:15.297Z,7.88
2022-11-13T17:07:36.718Z,5.39
2022-11-13T17:10:24.103Z,7.80
2022-11-13T17:12:39.727Z,6.65
2022-11-13T17:15:00.937Z,7.94
2022-11-13T17:17:22.062Z,8.00
2022-11-13T17:19:44.729Z,7.25
2022-11-13T17:22:07.564Z,5.05
2022-11-13T17:24:28.884Z,7.92
2022-11-13T17:26:50.080Z,7.84
2022-11-13T17:29:11.237Z,7.69
2022-11-13T17:31:32.480Z,7.70
2022-11-13T17:33:54.173Z,7.14
2022-11-13T17:36:15.495Z,6.75
2022-11-13T17:38:39.002Z,7.62
2022-11-13T17:41:05.309Z,7.56
2022-11-13T17:43:26.733Z,7.08
2022-11-13T17:45:50.818Z,7.47
2022-11-13T17:48:12.234Z,7.46
2022-11-13T17:50:33.672Z,4.70
2022-11-13T17:52:54.961Z,7.30
2022-11-13T17:55:17.575Z,7.27
2022-11-13T17:57:39.215Z,7.26
2022-11-13T18:00:00.449Z,7.22
2022-11-13T18:02:21.626Z,5.21
2022-11-13T18:04:42.913Z,7.48
2022-11-13T18:07:04.135Z,9.66
2022-11-13T18:09:25.384Z,9.63
2022-11-13T18:11:47.932Z,9.57
2022-11-13T18:14:09.891Z,9.05
2022-11-13T18:16:34.479Z,2.57
2022-11-13T18:19:00.808Z,8.00
2022-11-13T18:21:25.105Z,7.67
2022-11-13T18:23:46.651Z,7.46
2022-11-13T18:26:09.789Z,4.27
2022-11-13T18:28:32.598Z,6.61
2022-11-13T18:30:56.669Z,5.90
2022-11-13T18:33:17.969Z,6.75
2022-11-13T18:35:39.414Z,6.59
2022-11-13T18:38:00.872Z,6.56
2022-11-13T18:40:22.388Z,5.22
2022-11-13T18:42:44.370Z,5.22
2022-11-13T18:45:08.857Z,6.28
2022-11-13T18:47:30.190Z,6.33
2022-11-13T18:49:51.622Z,6.25
2022-11-13T18:52:12.819Z,6.19
2022-11-13T18:54:33.965Z,4.92
2022-11-13T18:56:55.187Z,3.14
2022-11-13T18:59:16.734Z,6.09
2022-11-13T19:01:39.971Z,0.52
2022-11-13T19:06:46.391Z,-0.43
2022-11-13T19:09:11.490Z,5.84
2022-11-13T19:11:33.750Z,5.70
2022-11-13T19:13:55.330Z,3.43
2022-11-13T19:16:18.042Z,4.19
2022-11-13T19:18:42.374Z,-0.14
2022-11-13T19:21:08.851Z,5.23
2022-11-13T19:23:30.162Z,5.32
2022-11-13T19:25:51.373Z,5.29
2022-11-13T19:28:12.469Z,4.30
2022-11-13T19:30:33.737Z,4.33
2022-11-13T19:32:54.962Z,-5.84
2022-11-13T19:35:17.730Z,5.29
2022-11-13T19:37:38.832Z,3.33
2022-11-13T19:40:00.250Z,5.49
2022-11-13T19:42:21.874Z,0.64
2022-11-13T19:44:43.211Z,5.38
2022-11-13T19:47:04.402Z,5.46
2022-11-13T19:49:25.615Z,4.27
2022-11-13T19:51:48.337Z,0.86
2022-11-13T19:54:09.942Z,5.69
2022-11-13T19:56:31.057Z,4.62
2022-11-13T19:58:53.798Z,2.21
2022-11-13T20:01:17.475Z,5.47
2022-11-13T20:03:38.800Z,3.77
2022-11-13T20:06:01.072Z,5.68
2022-11-13T20:08:26.959Z,5.62
2022-11-13T20:10:49.780Z,4.78
2022-11-13T20:13:11.431Z,3.84
2022-11-13T20:15:33.410Z,0.95
2022-11-13T20:17:54.609Z,5.58
2022-11-13T20:20:16.007Z,3.66
2022-11-13T20:22:37.694Z,5.63
2022-11-13T20:25:00.473Z,5.66
2022-11-13T20:27:21.926Z,4.55
2022-11-13T20:29:43.231Z,5.50
2022-11-13T20:32:05.188Z,-0.99
2022-11-13T20:34:26.948Z,1.00
2022-11-13T20:36:49.228Z,0.24
2022-11-13T20:39:10.923Z,4.52
2022-11-13T20:41:34.677Z,-5.05
2022-11-13T20:44:01.613Z,2.40
2022-11-13T20:46:23.103Z,5.74
2022-11-13T20:48:46.028Z,-1.65
2022-11-13T20:51:09.342Z,0.41
2022-11-13T20:53:30.945Z,2.89
2022-11-13T20:55:52.228Z,5.53
2022-11-13T20:58:14.968Z,-0.26
2022-11-13T21:00:36.166Z,0.17
2022-11-13T21:02:57.416Z,-0.34
2022-11-13T21:05:20.375Z,-5.60
2022-11-13T21:07:41.782Z,-2.01
2022-11-13T21:10:03.922Z,0.49
2022-11-13T21:12:25.108Z,5.78
2022-11-13T21:14:47.735Z,5.74
2022-11-13T21:17:09.198Z,5.58
2022-11-13T21:19:30.970Z,4.75
2022-11-13T21:21:52.149Z,5.40
2022-11-13T21:24:13.400Z,-0.80
2022-11-13T21:26:34.758Z,5.60
2022-11-13T21:28:56.708Z,-0.01
2022-11-13T21:31:22.147Z,1.61
2022-11-13T21:33:45.420Z,4.41
2022-11-13T21:36:08.125Z,3.05
2022-11-13T21:38:29.537Z,5.84
2022-11-13T21:41:13.294Z,-0.53
2022-11-13T21:43:34.627Z,5.65
2022-11-13T21:45:55.759Z,5.40
2022-11-13T21:48:18.318Z,-0.67
2022-11-13T21:50:39.431Z,0.68
2022-11-13T21:53:00.458Z,5.38
2022-11-13T21:55:21.507Z,5.39
2022-11-13T21:57:42.599Z,5.38
2022-11-13T22:00:04.424Z,5.04
2022-11-13T22:02:25.805Z,5.21
2022-11-13T22:04:48.773Z,0.51
2022-11-13T22:07:10.200Z,0.14
2022-11-13T22:09:31.829Z,4.69
2022-11-13T22:11:53.354Z,4.96
2022-11-13T22:14:14.992Z,4.58
2022-11-13T22:16:38.437Z,-1.23
2022-11-13T22:19:01.412Z,-2.99
2022-11-13T22:21:25.042Z,4.76
2022-11-13T22:23:46.108Z,3.21
2022-11-13T22:26:08.762Z,5.08
2022-11-13T22:28:30.750Z,0.00
2022-11-13T22:30:52.324Z,-0.13
2022-11-13T22:33:13.647Z,2.36
2022-11-13T22:35:34.945Z,-5.69
2022-11-13T22:37:57.617Z,1.27
2022-11-13T22:40:19.285Z,-4.18
2022-11-13T22:42:40.758Z,1.16
2022-11-13T22:45:04.402Z,5.39
2022-11-13T22:47:37.068Z,1.50
2022-11-13T22:50:00.573Z,4.30
2022-11-13T22:52:21.944Z,0.86
2022-11-13T22:54:44.420Z,5.66
2022-11-13T22:57:05.949Z,5.65
2022-11-13T22:59:27.369Z,0.61
2022-11-13T23:01:48.728Z,5.03
2022-11-13T23:04:13.776Z,5.75
2022-11-13T23:06:36.824Z,-2.93
2022-11-13T23:08:58.317Z,-0.89
2022-11-13T23:11:22.905Z,3.42
2022-11-13T23:13:46.401Z,3.22
2022-11-13T23:16:08.260Z,2.51
2022-11-13T23:18:31.507Z,1.86
2022-11-13T23:20:53.315Z,1.38
2022-11-13T23:23:16.092Z,5.62
2022-11-13T23:25:37.679Z,1.01
2022-11-13T23:28:00.236Z,4.46
2022-11-13T23:30:21.455Z,5.64
2022-11-13T23:32:43.848Z,5.61
2022-11-13T23:35:05.440Z,5.51
2022-11-13T23:37:26.762Z,-0.67
2022-11-13T23:39:47.865Z,-0.57
2022-11-13T23:42:08.952Z,3.27
2022-11-13T23:44:31.443Z,0.03
2022-11-13T23:46:52.628Z,5.44
2022-11-13T23:49:14.034Z,5.57
2022-11-13T23:51:35.510Z,3.42
2022-11-13T23:53:56.688Z,5.55
2022-11-13T23:56:18.048Z,0.25
2022-11-13T23:58:39.542Z,5.43
